createdAt,value
2018-05-07T00:02:20.915Z,19.30
2018-05-07T00:04:48.339Z,19.20
2018-05-07T00:07:15.871Z,19.20
2018-05-07T00:09:43.321Z,19.10
2018-05-07T00:12:10.809Z,19.10
2018-05-07T00:14:38.298Z,19.10
2018-05-07T00:17:06.205Z,19.10
2018-05-07T00:19:33.708Z,19.10
2018-05-07T00:22:01.141Z,19.10
2018-05-07T00:24:28.590Z,19.00
2018-05-07T00:26:56.097Z,19.00
2018-05-07T00:29:23.535Z,19.00
2018-05-07T00:31:50.986Z,18.90
2018-05-07T00:34:18.441Z,18.90
2018-05-07T00:36:45.899Z,18.90
2018-05-07T00:39:13.922Z,18.90
2018-05-07T00:41:41.361Z,18.90
2018-05-07T00:44:08.820Z,18.80
2018-05-07T00:46:36.272Z,18.80
2018-05-07T00:49:03.733Z,18.80
2018-05-07T00:51:31.223Z,18.70
2018-05-07T00:53:58.765Z,18.70
2018-05-07T00:56:26.226Z,18.70
2018-05-07T00:58:53.679Z,18.60
2018-05-07T01:01:21.107Z,18.60
2018-05-07T01:03:48.624Z,18.60
2018-05-07T01:06:16.069Z,18.60
2018-05-07T01:08:43.496Z,18.50
2018-05-07T01:11:10.936Z,18.50
2018-05-07T01:13:38.460Z,18.50
2018-05-07T01:16:06.017Z,18.40
2018-05-07T01:18:33.446Z,18.40
2018-05-07T01:21:00.888Z,18.40
2018-05-07T01:23:28.707Z,18.30
2018-05-07T01:25:56.869Z,18.30
2018-05-07T01:28:24.367Z,18.30
2018-05-07T01:30:51.801Z,18.30
2018-05-07T01:33:19.244Z,18.30
2018-05-07T01:35:47.139Z,18.30
2018-05-07T01:38:14.574Z,18.30
2018-05-07T01:40:42.071Z,18.20
2018-05-07T01:43:09.518Z,18.20
2018-05-07T01:45:36.997Z,18.20
2018-05-07T01:48:04.426Z,18.10
2018-05-07T01:50:31.924Z,18.10
2018-05-07T01:52:59.362Z,18.10
2018-05-07T01:55:26.794Z,18.10
2018-05-07T01:57:54.936Z,18.10
2018-05-07T02:00:22.366Z,18.00
2018-05-07T02:02:49.811Z,18.00
2018-05-07T02:05:17.409Z,18.00
2018-05-07T02:07:44.870Z,17.90
2018-05-07T02:10:12.301Z,17.90
2018-05-07T02:12:39.790Z,17.90
2018-05-07T02:15:07.226Z,17.80
2018-05-07T02:17:34.727Z,17.80
2018-05-07T02:20:02.160Z,17.80
2018-05-07T02:22:29.675Z,17.70
2018-05-07T02:24:57.130Z,17.70
2018-05-07T02:27:24.569Z,17.70
2018-05-07T02:29:53.799Z,17.70
2018-05-07T02:32:21.261Z,17.70
2018-05-07T02:34:48.729Z,17.70
2018-05-07T02:37:16.189Z,17.70
2018-05-07T02:39:43.657Z,17.70
2018-05-07T02:42:11.165Z,17.70
2018-05-07T02:44:38.630Z,17.60
2018-05-07T02:47:06.107Z,17.60
2018-05-07T02:49:33.578Z,17.60
2018-05-07T02:52:01.036Z,17.60
2018-05-07T02:54:28.528Z,17.50
2018-05-07T02:56:55.969Z,17.50
2018-05-07T02:59:23.453Z,17.40
2018-05-07T03:01:51.236Z,17.40
2018-05-07T03:04:18.783Z,17.40
2018-05-07T03:06:46.268Z,17.30
2018-05-07T03:09:14.327Z,17.20
2018-05-07T03:11:41.788Z,17.30
2018-05-07T03:14:09.251Z,17.20
2018-05-07T03:16:36.728Z,17.20
2018-05-07T03:19:04.273Z,17.20
2018-05-07T03:21:31.823Z,17.20
2018-05-07T03:23:59.302Z,17.10
2018-05-07T03:26:26.770Z,17.10
2018-05-07T03:28:54.892Z,17.10
2018-05-07T03:31:22.334Z,17.10
2018-05-07T03:33:50.295Z,17.10
2018-05-07T03:36:18.167Z,17.00
2018-05-07T03:38:46.030Z,17.00
2018-05-07T03:41:13.913Z,16.90
2018-05-07T03:43:41.828Z,16.90
2018-05-07T03:46:09.285Z,16.90
2018-05-07T03:48:36.813Z,16.90
2018-05-07T03:51:04.236Z,16.80
2018-05-07T03:53:31.704Z,16.70
2018-05-07T03:55:59.225Z,16.70
2018-05-07T03:58:26.730Z,16.60
2018-05-07T04:00:54.181Z,16.60
2018-05-07T04:03:21.656Z,16.50
2018-05-07T04:05:52.186Z,16.50
2018-05-07T04:08:19.751Z,16.40
2018-05-07T04:10:47.208Z,16.40
2018-05-07T04:13:14.723Z,16.30
2018-05-07T04:15:42.128Z,16.20
2018-05-07T04:18:21.582Z,16.10
2018-05-07T04:21:00.841Z,16.10
2018-05-07T04:23:40.698Z,15.90
2018-05-07T04:26:08.165Z,15.90
2018-05-07T04:28:35.678Z,15.90
2018-05-07T04:31:03.144Z,15.80
2018-05-07T04:33:30.706Z,15.80
2018-05-07T04:35:58.181Z,15.80
2018-05-07T04:38:25.645Z,15.70
2018-05-07T04:40:53.194Z,15.70
2018-05-07T04:43:20.738Z,15.70
2018-05-07T04:45:48.106Z,15.70
2018-05-07T04:48:15.565Z,15.70
2018-05-07T04:50:43.031Z,15.70
2018-05-07T04:53:10.492Z,15.70
2018-05-07T04:55:37.943Z,15.70
2018-05-07T04:58:05.396Z,15.70
2018-05-07T05:00:32.889Z,15.70
2018-05-07T05:03:00.347Z,15.70
2018-05-07T05:05:27.861Z,15.80
2018-05-07T05:07:55.388Z,15.80
2018-05-07T05:10:22.833Z,15.80
2018-05-07T05:12:50.804Z,15.90
2018-05-07T05:15:18.279Z,15.90
2018-05-07T05:17:45.775Z,16.00
2018-05-07T05:20:13.305Z,16.10
2018-05-07T05:22:40.750Z,16.10
2018-05-07T05:25:08.227Z,16.20
2018-05-07T05:27:35.688Z,16.30
2018-05-07T05:30:03.164Z,16.40
2018-05-07T05:32:31.040Z,16.60
2018-05-07T05:34:58.487Z,16.60
2018-05-07T05:37:26.060Z,16.70
2018-05-07T05:39:53.607Z,16.80
2018-05-07T05:42:21.068Z,16.80
2018-05-07T05:44:48.932Z,17.00
2018-05-07T05:47:16.404Z,17.10
2018-05-07T05:49:43.859Z,17.20
2018-05-07T05:52:11.312Z,17.30
2018-05-07T05:54:38.864Z,17.30
2018-05-07T05:57:06.359Z,17.40
2018-05-07T05:59:33.932Z,17.50
2018-05-07T06:02:01.402Z,17.60
2018-05-07T06:04:28.949Z,17.60
2018-05-07T06:06:56.523Z,17.70
2018-05-07T06:09:24.074Z,17.80
2018-05-07T06:11:51.530Z,17.90
2018-05-07T06:14:18.996Z,17.90
2018-05-07T06:16:46.448Z,18.10
2018-05-07T06:19:13.924Z,18.10
2018-05-07T06:21:41.495Z,18.20
2018-05-07T06:24:09.003Z,18.30
2018-05-07T06:26:36.512Z,18.30
2018-05-07T06:29:04.090Z,18.40
2018-05-07T06:31:31.556Z,18.40
2018-05-07T06:33:59.019Z,18.40
2018-05-07T06:36:26.479Z,18.50
2018-05-07T06:38:53.933Z,18.50
2018-05-07T06:41:21.393Z,18.60
2018-05-07T06:43:48.877Z,18.60
2018-05-07T06:46:16.744Z,18.80
2018-05-07T06:48:44.685Z,18.90
2018-05-07T06:51:12.147Z,18.90
2018-05-07T06:53:39.604Z,19.00
2018-05-07T06:56:07.185Z,19.00
2018-05-07T06:58:34.672Z,19.10
2018-05-07T07:01:02.259Z,19.20
2018-05-07T07:03:30.047Z,19.20
2018-05-07T07:05:57.613Z,19.20
2018-05-07T07:08:25.279Z,19.30
2018-05-07T07:10:52.829Z,19.30
2018-05-07T07:13:20.497Z,19.40
2018-05-07T07:15:48.046Z,19.40
2018-05-07T07:18:15.508Z,19.40
2018-05-07T07:20:43.482Z,19.40
2018-05-07T07:23:11.344Z,19.40
2018-05-07T07:25:39.208Z,19.50
2018-05-07T07:28:07.212Z,19.50
2018-05-07T07:30:35.190Z,19.50
2018-05-07T07:33:02.836Z,19.60
2018-05-07T07:35:32.083Z,19.70
2018-05-07T07:37:59.575Z,19.70
2018-05-07T07:40:27.130Z,19.80
2018-05-07T07:42:54.694Z,19.80
2018-05-07T07:45:22.202Z,19.80
2018-05-07T07:47:49.841Z,19.90
2018-05-07T07:50:17.706Z,19.80
2018-05-07T07:52:45.163Z,19.80
2018-05-07T07:55:12.811Z,19.90
2018-05-07T07:57:40.348Z,20.00
2018-05-07T08:00:07.804Z,20.00
2018-05-07T08:02:35.273Z,20.10
2018-05-07T08:05:02.781Z,20.10
2018-05-07T08:07:30.345Z,20.20
2018-05-07T08:09:57.885Z,20.20
2018-05-07T08:12:25.366Z,20.30
2018-05-07T08:14:52.834Z,20.40
2018-05-07T08:17:20.300Z,20.50
2018-05-07T08:19:47.872Z,20.60
2018-05-07T08:22:15.500Z,20.60
2018-05-07T08:24:42.992Z,20.60
2018-05-07T08:27:10.560Z,20.70
2018-05-07T08:29:38.142Z,20.70
2018-05-07T08:32:05.992Z,20.90
2018-05-07T08:34:33.550Z,20.90
2018-05-07T08:37:01.034Z,20.90
2018-05-07T08:39:28.898Z,21.00
2018-05-07T08:41:56.745Z,21.10
2018-05-07T08:44:24.288Z,21.10
2018-05-07T08:46:51.814Z,21.10
2018-05-07T08:49:19.680Z,21.30
2018-05-07T08:51:47.606Z,21.40
2018-05-07T08:54:15.087Z,21.40
2018-05-07T08:56:42.560Z,21.50
2018-05-07T08:59:10.805Z,21.60
2018-05-07T09:01:38.276Z,21.70
2018-05-07T09:04:05.744Z,21.90
2018-05-07T09:06:33.206Z,22.10
2018-05-07T09:09:00.679Z,22.30
2018-05-07T09:11:28.145Z,22.50
2018-05-07T09:13:55.607Z,22.70
2018-05-07T09:16:23.063Z,23.00
2018-05-07T09:18:50.628Z,23.30
2018-05-07T09:21:18.155Z,23.60
2018-05-07T09:23:46.036Z,24.30
2018-05-07T09:26:13.536Z,24.30
2018-05-07T09:28:40.989Z,24.70
2018-05-07T09:31:08.458Z,25.20
2018-05-07T09:33:35.908Z,25.60
2018-05-07T09:36:03.405Z,26.00
2018-05-07T09:38:30.873Z,26.30
2018-05-07T09:40:58.819Z,27.20
2018-05-07T09:43:26.280Z,27.20
2018-05-07T09:45:53.840Z,27.60
2018-05-07T09:48:21.332Z,27.80
2018-05-07T09:50:48.782Z,28.10
2018-05-07T09:53:16.650Z,28.80
2018-05-07T09:55:44.177Z,28.80
2018-05-07T09:58:11.974Z,29.40
2018-05-07T10:00:39.487Z,29.50
2018-05-07T10:03:06.973Z,29.70
2018-05-07T10:05:34.445Z,29.80
2018-05-07T10:08:02.365Z,29.70
2018-05-07T10:10:30.227Z,29.30
2018-05-07T10:12:58.232Z,28.90
2018-05-07T10:15:25.704Z,28.90
2018-05-07T10:17:53.180Z,28.40
2018-05-07T10:20:20.684Z,27.90
2018-05-07T10:22:48.236Z,27.40
2018-05-07T10:25:15.759Z,27.00
2018-05-07T10:27:43.229Z,26.60
2018-05-07T10:30:10.729Z,26.20
2018-05-07T10:32:38.290Z,25.80
2018-05-07T10:35:05.846Z,25.60
2018-05-07T10:37:33.423Z,25.30
2018-05-07T10:40:01.287Z,24.90
2018-05-07T10:42:28.752Z,24.90
2018-05-07T10:44:56.323Z,24.80
2018-05-07T10:47:23.785Z,24.70
2018-05-07T10:49:51.688Z,24.40
2018-05-07T10:52:19.221Z,24.40
2018-05-07T10:54:47.090Z,24.40
2018-05-07T10:57:14.646Z,24.40
2018-05-07T10:59:42.112Z,24.30
2018-05-07T11:02:09.641Z,24.30
2018-05-07T11:04:37.100Z,24.30
2018-05-07T11:07:04.559Z,24.30
2018-05-07T11:09:32.049Z,24.30
2018-05-07T11:11:59.845Z,24.30
2018-05-07T11:14:27.361Z,24.30
2018-05-07T11:16:54.949Z,24.30
2018-05-07T11:19:22.528Z,24.30
2018-05-07T11:21:50.086Z,24.30
2018-05-07T11:24:17.946Z,24.30
2018-05-07T11:26:45.700Z,24.30
2018-05-07T11:29:13.163Z,24.30
2018-05-07T11:31:40.643Z,24.30
2018-05-07T11:34:08.123Z,24.30
2018-05-07T11:36:35.989Z,24.40
2018-05-07T11:39:03.579Z,24.40
2018-05-07T11:41:31.011Z,24.50
2018-05-07T11:43:58.491Z,24.50
2018-05-07T11:46:26.448Z,24.60
2018-05-07T11:48:53.916Z,24.60
2018-05-07T11:51:21.785Z,24.70
2018-05-07T11:53:50.067Z,24.70
2018-05-07T11:56:17.637Z,24.70
2018-05-07T11:58:45.508Z,24.80
2018-05-07T12:01:13.383Z,24.80
2018-05-07T12:03:40.916Z,24.80
2018-05-07T12:06:08.484Z,24.80
2018-05-07T12:08:36.159Z,24.80
2018-05-07T12:11:03.638Z,24.90
2018-05-07T12:13:31.480Z,24.90
2018-05-07T12:15:59.287Z,24.90
2018-05-07T12:18:26.831Z,24.90
2018-05-07T12:20:54.298Z,24.90
2018-05-07T12:23:21.825Z,24.90
2018-05-07T12:25:49.645Z,24.80
2018-05-07T12:28:17.562Z,24.90
2018-05-07T12:30:45.018Z,24.90
2018-05-07T12:33:12.520Z,24.90
2018-05-07T12:35:40.089Z,24.90
2018-05-07T12:38:07.561Z,25.00
2018-05-07T12:40:35.120Z,25.00
2018-05-07T12:43:02.623Z,25.10
2018-05-07T12:45:30.156Z,25.10
2018-05-07T12:47:58.344Z,25.10
2018-05-07T12:50:26.210Z,25.20
2018-05-07T12:52:54.084Z,25.20
2018-05-07T12:55:21.948Z,25.20
2018-05-07T12:57:49.969Z,25.20
2018-05-07T13:00:17.425Z,25.20
2018-05-07T13:02:44.926Z,25.20
2018-05-07T13:05:12.497Z,25.30
2018-05-07T13:07:40.073Z,25.30
2018-05-07T13:10:07.600Z,25.30
2018-05-07T13:12:35.101Z,25.40
2018-05-07T13:15:02.584Z,25.40
2018-05-07T13:17:30.546Z,25.40
2018-05-07T13:19:58.501Z,25.40
2018-05-07T13:22:26.080Z,25.40
2018-05-07T13:24:54.054Z,25.40
2018-05-07T13:27:21.448Z,25.40
2018-05-07T13:29:49.344Z,25.50
2018-05-07T13:32:16.839Z,25.40
2018-05-07T13:34:44.313Z,25.50
2018-05-07T13:37:12.261Z,25.60
2018-05-07T13:39:39.743Z,25.60
2018-05-07T13:42:07.702Z,25.60
2018-05-07T13:44:35.184Z,25.60
2018-05-07T13:47:03.144Z,25.50
2018-05-07T13:49:30.614Z,25.50
2018-05-07T13:51:58.095Z,25.50
2018-05-07T13:54:25.946Z,25.40
2018-05-07T13:56:53.896Z,25.40
2018-05-07T13:59:21.781Z,25.50
2018-05-07T14:01:49.233Z,25.50
2018-05-07T14:04:16.797Z,25.50
2018-05-07T14:06:44.305Z,25.50
2018-05-07T14:09:11.830Z,25.60
2018-05-07T14:11:39.289Z,25.60
2018-05-07T14:14:06.750Z,25.60
2018-05-07T14:16:34.253Z,25.60
2018-05-07T14:19:02.181Z,25.70
2018-05-07T14:21:29.768Z,25.70
2018-05-07T14:23:57.239Z,25.80
2018-05-07T14:26:24.710Z,25.90
2018-05-07T14:28:52.570Z,25.90
2018-05-07T14:31:20.513Z,25.90
2018-05-07T14:33:48.015Z,25.90
2018-05-07T14:49:21.700Z,26.50
2018-05-07T14:51:49.675Z,26.50
2018-05-07T14:54:17.663Z,26.60
2018-05-07T14:56:45.232Z,26.60
2018-05-07T14:59:12.757Z,26.60
2018-05-07T15:01:40.349Z,26.60
2018-05-07T15:04:08.196Z,26.60
2018-05-07T15:06:36.074Z,26.60
2018-05-07T15:09:03.538Z,26.60
2018-05-07T15:11:30.992Z,26.60
2018-05-07T15:14:10.308Z,26.60
2018-05-07T15:16:37.769Z,26.60
2018-05-07T15:19:05.237Z,26.60
2018-05-07T15:21:32.792Z,26.60
2018-05-07T15:24:00.281Z,26.70
2018-05-07T15:26:28.631Z,26.70
2018-05-07T15:28:56.106Z,26.70
2018-05-07T15:31:23.550Z,26.70
2018-05-07T15:33:51.016Z,26.70
2018-05-07T15:36:18.481Z,26.80
2018-05-07T15:38:46.058Z,26.70
2018-05-07T15:41:13.525Z,26.70
2018-05-07T15:43:41.153Z,26.70
2018-05-07T15:46:09.061Z,26.70
2018-05-07T15:48:36.510Z,26.70
2018-05-07T15:51:04.024Z,26.70
2018-05-07T15:53:31.485Z,26.80
2018-05-07T15:55:59.419Z,26.90
2018-05-07T15:58:27.099Z,26.80
2018-05-07T16:00:57.685Z,26.80
2018-05-07T16:03:25.206Z,26.80
2018-05-07T16:05:53.165Z,26.70
2018-05-07T16:08:20.645Z,26.70
2018-05-07T16:10:48.181Z,26.70
2018-05-07T16:13:15.752Z,26.70
2018-05-07T16:15:43.314Z,26.70
2018-05-07T16:18:11.812Z,26.70
2018-05-07T16:20:39.732Z,26.70
2018-05-07T16:23:07.186Z,26.70
2018-05-07T16:25:34.771Z,26.70
2018-05-07T16:28:02.383Z,26.70
2018-05-07T16:30:30.346Z,26.70
2018-05-07T16:32:57.928Z,26.70
2018-05-07T16:35:25.932Z,26.70
2018-05-07T16:37:53.442Z,26.70
2018-05-07T16:40:21.144Z,26.70
2018-05-07T16:42:48.698Z,26.70
2018-05-07T16:45:20.065Z,26.70
2018-05-07T16:47:47.535Z,26.70
2018-05-07T16:50:15.047Z,26.70
2018-05-07T16:52:42.520Z,26.60
2018-05-07T16:55:09.977Z,26.60
2018-05-07T16:57:37.432Z,26.60
2018-05-07T17:00:04.875Z,26.60
2018-05-07T17:02:32.336Z,26.60
2018-05-07T17:04:59.840Z,26.60
2018-05-07T17:07:28.215Z,26.60
2018-05-07T17:09:55.655Z,26.60
2018-05-07T17:12:23.219Z,26.50
2018-05-07T17:14:50.773Z,26.50
2018-05-07T17:17:18.288Z,26.50
2018-05-07T17:19:46.151Z,26.40
2018-05-07T17:22:13.607Z,26.40
2018-05-07T17:24:41.069Z,26.40
2018-05-07T17:27:08.523Z,26.30
2018-05-07T17:29:36.082Z,26.30
2018-05-07T17:32:03.632Z,26.30
2018-05-07T17:34:31.095Z,26.20
2018-05-07T17:36:58.663Z,26.20
2018-05-07T17:39:26.120Z,26.20
2018-05-07T17:41:53.720Z,26.20
2018-05-07T17:44:33.227Z,26.10
2018-05-07T17:47:12.493Z,26.10
2018-05-07T17:49:40.348Z,26.00
2018-05-07T17:52:08.771Z,26.00
2018-05-07T17:54:36.330Z,26.00
2018-05-07T17:57:03.857Z,26.00
2018-05-07T17:59:31.328Z,25.90
2018-05-07T18:01:58.781Z,25.90
2018-05-07T18:04:26.307Z,25.90
2018-05-07T18:06:53.802Z,25.80
2018-05-07T18:09:21.800Z,25.80
2018-05-07T18:11:49.779Z,25.70
2018-05-07T18:14:17.624Z,25.60
2018-05-07T18:16:45.193Z,25.60
2018-05-07T18:19:13.231Z,25.50
2018-05-07T18:21:40.633Z,25.50
2018-05-07T18:24:08.124Z,25.50
2018-05-07T18:26:35.657Z,25.40
2018-05-07T18:29:03.137Z,25.30
2018-05-07T18:31:31.040Z,25.20
2018-05-07T18:33:58.873Z,25.10
2018-05-07T18:36:26.732Z,25.00
2018-05-07T18:38:54.220Z,25.10
2018-05-07T18:41:22.995Z,25.00
2018-05-07T18:43:50.526Z,24.90
2018-05-07T18:46:17.992Z,24.80
2018-05-07T18:48:45.594Z,24.70
2018-05-07T18:51:13.456Z,24.50
2018-05-07T18:53:40.931Z,24.60
2018-05-07T18:56:08.784Z,24.30
2018-05-07T18:58:38.340Z,24.30
2018-05-07T19:01:07.035Z,24.30
2018-05-07T19:03:36.090Z,24.20
2018-05-07T19:06:05.120Z,24.00
2018-05-07T19:08:33.483Z,24.00
2018-05-07T19:11:02.499Z,23.80
2018-05-07T19:13:30.912Z,23.80
2018-05-07T19:15:59.505Z,23.70
2018-05-07T19:18:28.009Z,23.60
2018-05-07T19:20:56.936Z,23.50
2018-05-07T19:23:25.136Z,23.40
2018-05-07T19:25:53.673Z,23.30
2018-05-07T19:28:22.410Z,23.10
2018-05-07T19:30:51.382Z,23.10
2018-05-07T19:33:19.645Z,23.00
2018-05-07T19:35:47.866Z,23.00
2018-05-07T19:38:15.946Z,22.90
2018-05-07T19:40:44.097Z,22.80
2018-05-07T19:43:12.681Z,22.70
2018-05-07T19:45:42.358Z,22.60
2018-05-07T19:48:10.398Z,22.60
2018-05-07T19:50:38.223Z,22.50
2018-05-07T19:53:06.848Z,22.40
2018-05-07T19:55:35.660Z,22.30
2018-05-07T19:58:03.702Z,22.30
2018-05-07T20:00:32.993Z,22.20
2018-05-07T20:03:02.958Z,22.20
2018-05-07T20:05:31.249Z,22.20
2018-05-07T20:07:59.753Z,22.20
2018-05-07T20:10:28.714Z,22.20
2018-05-07T20:12:56.920Z,22.20
2018-05-07T20:15:25.609Z,22.20
2018-05-07T20:17:54.366Z,22.20
2018-05-07T20:20:23.302Z,22.10
2018-05-07T20:22:51.862Z,22.10
2018-05-07T20:25:21.853Z,22.10
2018-05-07T20:27:50.062Z,22.10
2018-05-07T20:30:18.442Z,22.20
2018-05-07T20:32:47.115Z,22.10
2018-05-07T20:35:15.559Z,22.10
2018-05-07T20:37:43.983Z,22.10
2018-05-07T20:40:12.397Z,22.20
2018-05-07T20:42:40.761Z,22.10
2018-05-07T20:45:09.557Z,22.10
2018-05-07T20:47:37.693Z,22.10
2018-05-07T20:50:06.370Z,22.10
2018-05-07T20:52:35.400Z,22.10
2018-05-07T20:55:05.029Z,22.10
2018-05-07T20:57:33.733Z,22.10
2018-05-07T21:00:02.001Z,22.00
2018-05-07T21:02:30.142Z,22.00
2018-05-07T21:04:59.295Z,22.00
2018-05-07T21:07:27.659Z,22.00
2018-05-07T21:09:55.771Z,21.90
2018-05-07T21:12:24.907Z,21.90
2018-05-07T21:14:52.948Z,21.90
2018-05-07T21:17:21.391Z,21.90
2018-05-07T21:19:49.479Z,21.80
2018-05-07T21:22:18.384Z,21.70
2018-05-07T21:24:47.379Z,21.70
2018-05-07T21:27:15.480Z,21.70
2018-05-07T21:29:43.788Z,21.70
2018-05-07T21:32:12.311Z,21.70
2018-05-07T21:34:41.525Z,21.70
2018-05-07T21:37:09.515Z,21.60
2018-05-07T21:39:37.729Z,21.60
2018-05-07T21:42:05.586Z,21.60
2018-05-07T21:44:34.371Z,21.50
2018-05-07T21:47:02.636Z,21.50
2018-05-07T21:49:31.905Z,21.40
2018-05-07T21:52:00.282Z,21.40
2018-05-07T21:54:29.054Z,21.40
2018-05-07T21:56:57.509Z,21.30
2018-05-07T21:59:26.024Z,21.30
2018-05-07T22:01:53.827Z,21.30
2018-05-07T22:04:21.989Z,21.30
2018-05-07T22:06:50.635Z,21.30
2018-05-07T22:09:18.787Z,21.30
2018-05-07T22:11:46.958Z,21.20
2018-05-07T22:14:15.587Z,21.20
2018-05-07T22:16:43.859Z,21.20
2018-05-07T22:19:11.535Z,21.20
2018-05-07T22:21:39.937Z,21.20
2018-05-07T22:24:07.856Z,21.20
2018-05-07T22:26:36.221Z,21.10
2018-05-07T22:29:04.708Z,21.10
2018-05-07T22:31:32.728Z,21.10
2018-05-07T22:34:01.048Z,21.10
2018-05-07T22:36:29.089Z,21.00
2018-05-07T22:38:57.096Z,21.00
2018-05-07T22:41:24.966Z,21.00
2018-05-07T22:43:53.703Z,20.90
2018-05-07T22:46:21.824Z,20.90
2018-05-07T22:48:49.506Z,20.90
2018-05-07T22:51:18.861Z,20.80
2018-05-07T22:53:47.320Z,20.80
2018-05-07T22:56:16.046Z,20.80
2018-05-07T22:58:44.626Z,20.70
2018-05-07T23:01:12.985Z,20.70
2018-05-07T23:03:41.960Z,20.70
2018-05-07T23:06:10.053Z,20.70
2018-05-07T23:08:38.380Z,20.70
2018-05-07T23:11:06.941Z,20.60
2018-05-07T23:13:35.560Z,20.60
2018-05-07T23:16:03.777Z,20.60
2018-05-07T23:18:32.016Z,20.60
2018-05-07T23:20:59.930Z,20.60
2018-05-07T23:23:28.449Z,20.50
2018-05-07T23:25:56.827Z,20.50
2018-05-07T23:28:24.990Z,20.50
2018-05-07T23:30:53.496Z,20.40
2018-05-07T23:33:22.117Z,20.50
2018-05-07T23:35:50.135Z,20.40
2018-05-07T23:38:18.318Z,20.40
2018-05-07T23:40:46.674Z,20.40
2018-05-07T23:43:14.906Z,20.30
2018-05-07T23:45:43.561Z,20.30
2018-05-07T23:48:11.852Z,20.30
2018-05-07T23:50:40.421Z,20.30
2018-05-07T23:53:08.361Z,20.30
2018-05-07T23:55:36.586Z,20.30
2018-05-07T23:58:05.871Z,20.30
